Time;durP1;ratioP1;P1;durP2;ratioP2;P2;SDS_P1;SDS_P2;PMS_P1;PMS_P2;Temp;Humidity;BMP_temperature;BMP_pressure;BME280_temperature;BME280_humidity;BME280_pressure;Samples;Min_cycle;Max_cycle;Signal;HPM_P1;HPM_P2
2021/12/27 00:01:54;;;;;;;;;;;;;;;15.72;48.17;100322.97;5004873;28;20324;-40
2021/12/27 00:04:21;;;;;;;;;;;;;;;15.70;48.15;100319.59;5004096;28;19921;-40
2021/12/27 00:06:47;;;;;;;;;;;;;;;15.69;47.25;100329.44;5004109;28;20304;-40
2021/12/27 00:09:13;;;;;;;;;;;;;;;15.69;47.27;100325.94;5000915;28;20331;-40
2021/12/27 00:11:40;;;;;;;;;;;;;;;15.69;47.24;100326.75;5004238;28;20215;-40
2021/12/27 00:14:06;;;;;;;;;;;;;;;15.67;48.01;100326.06;5001798;28;20029;-40
2021/12/27 00:16:33;;;;;;;;;;;;;;;15.66;47.26;100324.38;5003399;28;19921;-41
2021/12/27 00:18:59;;;;;;;;;;;;;;;15.66;47.68;100320.88;5005090;28;19925;-40
2021/12/27 00:21:25;;;;;;;;;;;;;;;15.66;47.10;100319.03;5001085;28;20557;-40
2021/12/27 00:23:52;;;;;;;;;;;;;;;15.65;47.10;100313.88;5003760;28;19941;-40
2021/12/27 00:26:18;;;;;;;;;;;;;;;15.64;47.75;100317.47;5001868;28;20277;-40
2021/12/27 00:28:45;;;;;;;;;;;;;;;15.64;47.69;100314.81;5005075;28;19928;-40
2021/12/27 00:31:11;;;;;;;;;;;;;;;15.62;47.60;100304.28;5000264;28;19960;-40
2021/12/27 00:33:37;;;;;;;;;;;;;;;15.62;48.25;100303.44;5009352;28;20036;-40
2021/12/27 00:36:04;;;;;;;;;;;;;;;15.61;47.46;100305.28;5003876;28;20491;-40
2021/12/27 00:38:30;;;;;;;;;;;;;;;15.62;47.44;100303.44;5004253;28;19927;-40
2021/12/27 00:40:57;;;;;;;;;;;;;;;15.60;48.33;100287.56;5002880;28;19925;-40
2021/12/27 00:43:23;;;;;;;;;;;;;;;15.60;48.49;100286.72;5003677;28;19929;-40
2021/12/27 00:45:49;;;;;;;;;;;;;;;15.58;48.23;100280.69;5005910;28;19965;-40
2021/12/27 00:48:17;;;;;;;;;;;;;;;15.59;47.83;100279.69;5000881;28;19922;-40
2021/12/27 00:50:44;;;;;;;;;;;;;;;15.58;48.46;100278.03;5004218;28;19927;-40
2021/12/27 00:53:10;;;;;;;;;;;;;;;15.58;48.36;100272.69;5003132;28;20323;-39
2021/12/27 00:55:36;;;;;;;;;;;;;;;15.57;48.18;100265.66;5003238;28;19925;-39
2021/12/27 00:58:03;;;;;;;;;;;;;;;15.55;48.18;100269.31;5002857;28;20011;-40
2021/12/27 01:00:29;;;;;;;;;;;;;;;15.55;48.07;100277.31;5006537;28;19970;-40
2021/12/27 01:02:56;;;;;;;;;;;;;;;15.54;48.35;100269.47;5003239;28;19929;-40
2021/12/27 01:05:24;;;;;;;;;;;;;;;15.54;48.52;100262.28;5004201;28;20529;-41
2021/12/27 01:07:51;;;;;;;;;;;;;;;15.54;47.64;100270.31;5002375;28;19928;-40
2021/12/27 01:13:40;;;;;;;;;;;;;;;15.52;48.68;100260.78;5004920;28;19930;-40
2021/12/27 01:18:05;;;;;;;;;;;;;;;15.51;48.79;100251.91;5002291;28;19936;-40
2021/12/27 01:20:32;;;;;;;;;;;;;;;15.50;47.70;100255.56;5000837;28;20240;-40
2021/12/27 01:22:58;;;;;;;;;;;;;;;15.51;48.76;100251.06;5002085;28;19955;-40
2021/12/27 01:25:25;;;;;;;;;;;;;;;15.50;48.26;100257.41;5003394;28;19925;-40
2021/12/27 01:27:52;;;;;;;;;;;;;;;15.49;47.84;100251.22;5007085;28;20301;-40
2021/12/27 01:30:19;;;;;;;;;;;;;;;15.49;48.90;100250.41;5004246;28;19941;-40
2021/12/27 01:32:53;;;;;;;;;;;;;;;15.47;48.86;100255.88;5003573;28;20426;-40
2021/12/27 01:35:20;;;;;;;;;;;;;;;15.48;48.43;100249.56;5003443;28;20340;-40
2021/12/27 01:37:50;;;;;;;;;;;;;;;15.48;47.88;100252.22;5004147;28;19921;-40
2021/12/27 01:40:17;;;;;;;;;;;;;;;15.47;48.84;100244.34;5005604;28;19925;-40
2021/12/27 01:43:02;;;;;;;;;;;;;;;15.46;48.32;100237.34;5003809;28;19932;-40
2021/12/27 01:45:29;;;;;;;;;;;;;;;15.46;48.85;100240.00;5005728;28;20087;-40
2021/12/27 01:47:55;;;;;;;;;;;;;;;15.45;48.94;100241.84;5005594;28;19921;-40
2021/12/27 01:50:21;;;;;;;;;;;;;;;15.45;48.06;100233.00;5005543;28;19930;-40
2021/12/27 01:52:48;;;;;;;;;;;;;;;15.46;49.09;100237.34;5006160;28;20237;-40
2021/12/27 01:55:15;;;;;;;;;;;;;;;15.44;48.88;100234.84;5004324;28;19921;-40
2021/12/27 01:57:41;;;;;;;;;;;;;;;15.44;49.20;100240.16;5003468;28;19936;-40
2021/12/27 02:00:08;;;;;;;;;;;;;;;15.44;48.94;100234.00;5006202;28;20516;-40
2021/12/27 02:02:41;;;;;;;;;;;;;;;15.44;48.78;100236.66;5004805;28;19928;-40
2021/12/27 02:05:08;;;;;;;;;;;;;;;15.43;49.04;100237.63;5006894;28;19941;-40
2021/12/27 02:07:34;;;;;;;;;;;;;;;15.43;48.10;100240.31;5003724;28;19939;-40
2021/12/27 02:10:03;;;;;;;;;;;;;;;15.42;48.76;100230.63;5004158;28;19929;-40
2021/12/27 02:12:30;;;;;;;;;;;;;;;15.42;48.96;100241.31;5007109;28;19925;-40
2021/12/27 02:14:57;;;;;;;;;;;;;;;15.41;49.25;100236.97;5006132;28;19932;-40
2021/12/27 02:17:24;;;;;;;;;;;;;;;15.41;48.57;100234.28;5007012;28;19939;-40
2021/12/27 02:19:51;;;;;;;;;;;;;;;15.40;49.00;100233.44;5005903;28;19927;-40
2021/12/27 02:22:18;;;;;;;;;;;;;;;15.40;49.13;100232.63;5003553;28;19925;-40
2021/12/27 02:24:45;;;;;;;;;;;;;;;15.40;49.13;100225.44;5005908;28;19929;-40
2021/12/27 02:27:14;;;;;;;;;;;;;;;15.39;48.32;100223.75;5005020;28;19932;-40
2021/12/27 02:29:41;;;;;;;;;;;;;;;15.39;49.19;100223.75;5004169;28;19936;-40
2021/12/27 02:32:08;;;;;;;;;;;;;;;15.37;48.80;100220.41;5006675;28;20525;-40
2021/12/27 02:34:34;;;;;;;;;;;;;;;15.37;48.15;100212.38;5007627;28;19921;-40
2021/12/27 02:37:01;;;;;;;;;;;;;;;15.37;48.92;100222.22;5001794;28;19925;-40
2021/12/27 02:39:29;;;;;;;;;;;;;;;15.37;49.14;100211.56;5002405;28;19939;-40
2021/12/27 02:42:00;;;;;;;;;;;;;;;15.36;48.03;100207.22;5007285;28;19929;-40
2021/12/27 02:44:27;;;;;;;;;;;;;;;15.35;48.82;100203.66;5005704;28;19935;-40
2021/12/27 02:46:53;;;;;;;;;;;;;;;15.34;48.71;100215.34;5007725;28;19928;-40
2021/12/27 02:49:20;;;;;;;;;;;;;;;15.35;48.71;100213.53;5004542;28;19944;-40
2021/12/27 02:51:46;;;;;;;;;;;;;;;15.34;48.52;100204.66;5004905;28;19925;-40
2021/12/27 02:54:12;;;;;;;;;;;;;;;15.33;48.39;100203.00;5004531;28;19929;-40
2021/12/27 02:56:39;;;;;;;;;;;;;;;15.33;49.08;100195.00;5004728;28;19921;-40
2021/12/27 02:59:06;;;;;;;;;;;;;;;15.33;49.12;100200.34;5003362;28;20020;-40
2021/12/27 03:01:32;;;;;;;;;;;;;;;15.33;49.13;100202.16;5002738;28;19921;-40
2021/12/27 03:03:59;;;;;;;;;;;;;;;15.33;48.42;100199.50;5005762;28;19937;-40
2021/12/27 03:06:25;;;;;;;;;;;;;;;15.32;49.23;100204.00;5003558;28;19928;-40
2021/12/27 03:08:52;;;;;;;;;;;;;;;15.31;48.22;100208.47;5009525;28;19921;-40
2021/12/27 03:11:18;;;;;;;;;;;;;;;15.32;48.16;100206.66;5004781;28;19925;-40
2021/12/27 03:13:46;;;;;;;;;;;;;;;15.31;49.05;100203.13;5003386;28;19961;-40
2021/12/27 03:16:15;;;;;;;;;;;;;;;15.30;48.76;100196.13;4999407;28;19932;-40
2021/12/27 03:18:43;;;;;;;;;;;;;;;15.29;49.03;100194.44;5006041;28;20029;-40
2021/12/27 03:21:09;;;;;;;;;;;;;;;15.28;48.49;100192.78;5006512;28;19928;-40
2021/12/27 03:23:37;;;;;;;;;;;;;;;15.29;49.01;100189.13;5004716;28;19929;-40
2021/12/27 03:26:04;;;;;;;;;;;;;;;15.30;48.92;100193.44;5004769;28;20037;-40
2021/12/27 03:28:32;;;;;;;;;;;;;;;15.28;49.00;100195.44;5002208;28;20020;-40
2021/12/27 03:30:58;;;;;;;;;;;;;;;15.29;48.08;100188.28;5000767;28;20011;-40
2021/12/27 03:33:26;;;;;;;;;;;;;;;15.29;49.02;100193.63;5010334;28;19929;-40
2021/12/27 03:36:03;;;;;;;;;;;;;;;15.28;48.74;100181.28;5007468;28;20004;-40
2021/12/27 03:38:31;;;;;;;;;;;;;;;15.26;48.07;100184.06;5010306;28;19925;-40
2021/12/27 03:40:58;;;;;;;;;;;;;;;15.24;48.30;100186.06;5007073;28;20266;-40
2021/12/27 03:43:24;;;;;;;;;;;;;;;15.25;48.69;100182.41;5007022;28;20218;-40
2021/12/27 03:45:51;;;;;;;;;;;;;;;15.26;48.85;100178.72;5005525;28;19940;-40
2021/12/27 03:48:17;;;;;;;;;;;;;;;15.25;49.15;100179.72;5010045;28;19932;-40
2021/12/27 03:50:44;;;;;;;;;;;;;;;15.23;49.05;100181.69;5005670;28;20027;-40
2021/12/27 03:53:11;;;;;;;;;;;;;;;15.23;48.93;100170.19;5008936;28;20198;-39
2021/12/27 03:55:37;;;;;;;;;;;;;;;15.23;49.24;100178.19;5008996;28;19941;-39
2021/12/27 03:58:08;;;;;;;;;;;;;;;15.23;48.30;100173.69;5007008;28;20685;-40
2021/12/27 04:03:21;;;;;;;;;;;;;;;15.22;49.13;100161.34;5007479;28;19948;-40
2021/12/27 04:05:48;;;;;;;;;;;;;;;15.22;48.63;100160.50;5009160;28;19929;-41
2021/12/27 04:08:17;;;;;;;;;;;;;;;15.23;48.65;100159.50;5009152;28;19929;-40
2021/12/27 04:10:45;;;;;;;;;;;;;;;15.22;48.32;100153.34;5008750;28;19999;-40
2021/12/27 04:13:12;;;;;;;;;;;;;;;15.22;49.33;100145.31;5005833;28;20452;-40
2021/12/27 04:15:39;;;;;;;;;;;;;;;15.22;48.44;100150.66;5005862;28;19929;-40
2021/12/27 04:18:09;;;;;;;;;;;;;;;15.22;49.41;100156.00;5007741;28;20339;-40
2021/12/27 04:20:35;;;;;;;;;;;;;;;15.26;49.80;100145.84;5006860;28;19921;-39
2021/12/27 04:23:02;;;;;;;;;;;;;;;15.33;49.74;100138.91;5009338;28;19932;-40
2021/12/27 04:25:28;;;;;;;;;;;;;;;15.42;49.33;100139.81;5007125;28;20008;-40
2021/12/27 04:27:54;;;;;;;;;;;;;;;15.50;48.84;100137.22;5008829;28;19929;-40
2021/12/27 04:30:21;;;;;;;;;;;;;;;15.60;49.00;100140.66;5002485;28;19936;-40
2021/12/27 04:32:49;;;;;;;;;;;;;;;15.71;48.82;100139.59;5006781;28;19921;-41
2021/12/27 04:35:16;;;;;;;;;;;;;;;15.83;47.91;100137.50;5007335;28;19928;-40
2021/12/27 04:37:43;;;;;;;;;;;;;;;15.92;47.63;100137.41;5006737;28;19927;-40
2021/12/27 04:40:11;;;;;;;;;;;;;;;16.03;48.21;100138.97;5007248;28;19925;-40
2021/12/27 04:42:38;;;;;;;;;;;;;;;16.13;48.04;100138.88;5006350;28;20305;-40
2021/12/27 04:45:05;;;;;;;;;;;;;;;16.21;48.30;100131.72;5010090;28;19925;-41
2021/12/27 04:47:32;;;;;;;;;;;;;;;16.28;48.40;100119.41;5002965;28;20004;-40
2021/12/27 04:49:58;;;;;;;;;;;;;;;16.37;48.02;100130.97;5009837;28;19948;-40
2021/12/27 04:52:24;;;;;;;;;;;;;;;16.44;47.64;100129.34;5004287;28;20467;-41
2021/12/27 04:54:51;;;;;;;;;;;;;;;16.50;47.54;100117.16;5006096;28;21932;-41
2021/12/27 04:57:17;;;;;;;;;;;;;;;16.56;47.01;100119.16;5005111;28;19969;-40
2021/12/27 04:59:44;;;;;;;;;;;;;;;16.62;47.25;100113.19;5006205;28;19939;-40
2021/12/27 05:02:10;;;;;;;;;;;;;;;16.69;47.14;100116.91;5006751;28;19921;-41
2021/12/27 05:04:37;;;;;;;;;;;;;;;16.74;46.44;100109.25;5005971;28;19925;-41
2021/12/27 05:07:03;;;;;;;;;;;;;;;16.77;46.86;100098.22;5008880;28;19931;-41
2021/12/27 05:09:30;;;;;;;;;;;;;;;16.82;46.53;100102.25;5004247;28;19929;-40
2021/12/27 05:11:56;;;;;;;;;;;;;;;16.86;47.47;100098.22;5007728;28;19921;-41
2021/12/27 05:14:22;;;;;;;;;;;;;;;16.87;46.97;100086.50;5009735;28;19936;-41
2021/12/27 05:16:49;;;;;;;;;;;;;;;16.89;46.74;100092.56;5007084;28;20016;-41
2021/12/27 05:19:15;;;;;;;;;;;;;;;16.91;46.17;100095.88;5007649;28;20549;-41
2021/12/27 05:21:42;;;;;;;;;;;;;;;16.91;46.64;100091.38;5007493;28;19931;-41
2021/12/27 05:24:08;;;;;;;;;;;;;;;16.92;46.48;100084.19;5005551;28;19921;-41
2021/12/27 05:26:35;;;;;;;;;;;;;;;16.91;46.28;100074.47;5007287;28;19926;-40
2021/12/27 05:29:01;;;;;;;;;;;;;;;16.89;46.73;100068.47;5007580;28;19925;-40
2021/12/27 05:31:29;;;;;;;;;;;;;;;16.88;46.25;100074.81;5005315;28;19940;-40
2021/12/27 05:33:56;;;;;;;;;;;;;;;16.86;45.87;100084.84;5010135;28;19944;-40
2021/12/27 05:36:22;;;;;;;;;;;;;;;16.83;46.28;100083.31;5007356;28;19926;-40
2021/12/27 05:38:49;;;;;;;;;;;;;;;16.80;46.01;100088.16;5005825;28;19925;-40
2021/12/27 05:41:15;;;;;;;;;;;;;;;16.76;46.53;100085.84;5004571;28;19925;-41
2021/12/27 05:43:42;;;;;;;;;;;;;;;16.71;46.34;100080.09;5008893;28;19925;-40
2021/12/27 05:46:09;;;;;;;;;;;;;;;16.69;46.57;100081.28;5007301;28;19929;-40
2021/12/27 05:48:35;;;;;;;;;;;;;;;16.65;46.42;100074.56;5006234;28;20515;-40
2021/12/27 05:51:02;;;;;;;;;;;;;;;16.62;47.06;100074.91;5005502;28;20012;-40
2021/12/27 05:53:28;;;;;;;;;;;;;;;16.58;46.98;100074.38;5005309;28;19921;-40
2021/12/27 05:55:55;;;;;;;;;;;;;;;16.56;47.04;100078.22;5006016;28;20377;-40
2021/12/27 05:58:21;;;;;;;;;;;;;;;16.52;46.70;100077.69;5007317;28;20041;-40
2021/12/27 06:00:48;;;;;;;;;;;;;;;16.51;47.46;100076.03;5007154;28;19968;-40
2021/12/27 06:03:15;;;;;;;;;;;;;;;16.48;47.09;100081.69;5005530;28;19924;-41
2021/12/27 06:05:41;;;;;;;;;;;;;;;16.45;46.33;100074.00;5008537;28;19932;-40
2021/12/27 06:08:08;;;;;;;;;;;;;;;16.43;47.46;100076.00;5005636;28;19935;-40
2021/12/27 06:10:34;;;;;;;;;;;;;;;16.40;46.59;100069.16;5006353;28;19932;-40
2021/12/27 06:13:01;;;;;;;;;;;;;;;16.40;47.21;100066.47;5008406;28;19922;-40
2021/12/27 06:15:27;;;;;;;;;;;;;;;16.36;47.12;100078.50;5007020;28;20236;-40
2021/12/27 06:17:54;;;;;;;;;;;;;;;16.35;47.56;100073.28;5007483;28;20355;-40
2021/12/27 06:20:20;;;;;;;;;;;;;;;16.32;47.20;100069.09;5005082;28;19925;-41
2021/12/27 06:22:48;;;;;;;;;;;;;;;16.30;46.61;100079.13;5006198;28;20306;-40
2021/12/27 06:25:15;;;;;;;;;;;;;;;16.27;47.18;100077.59;5005581;28;19928;-40
2021/12/27 06:27:41;;;;;;;;;;;;;;;16.26;46.96;100080.44;5007479;28;19926;-40
2021/12/27 06:30:09;;;;;;;;;;;;;;;16.22;47.42;100079.09;5003424;28;19921;-40
2021/12/27 06:32:36;;;;;;;;;;;;;;;16.21;46.71;100085.44;5007744;28;20008;-40
2021/12/27 06:35:03;;;;;;;;;;;;;;;16.17;47.59;100082.25;5007569;28;20310;-40
2021/12/27 06:37:29;;;;;;;;;;;;;;;16.16;47.31;100082.41;5003824;28;19928;-41
2021/12/27 06:39:56;;;;;;;;;;;;;;;16.13;47.07;100075.56;5005978;28;19925;-40
2021/12/27 06:42:22;;;;;;;;;;;;;;;16.12;47.68;100079.22;5007393;28;20048;-41
2021/12/27 06:44:49;;;;;;;;;;;;;;;16.11;47.54;100071.34;5009025;28;19925;-41
2021/12/27 06:47:15;;;;;;;;;;;;;;;16.07;47.51;100068.16;5006055;28;19969;-41
2021/12/27 06:49:42;;;;;;;;;;;;;;;16.05;47.02;100072.84;5007164;28;20324;-41
2021/12/27 06:52:11;;;;;;;;;;;;;;;16.03;47.88;100070.31;5006947;28;20008;-41
2021/12/27 06:54:38;;;;;;;;;;;;;;;16.02;46.98;100074.00;5008915;28;19925;-41
2021/12/27 06:57:05;;;;;;;;;;;;;;;16.01;47.97;100076.81;5006293;28;19925;-41
2021/12/27 06:59:31;;;;;;;;;;;;;;;15.99;47.16;100076.97;5006991;28;20049;-41
2021/12/27 07:01:58;;;;;;;;;;;;;;;15.97;47.17;100078.16;5007801;28;19921;-40
2021/12/27 07:04:24;;;;;;;;;;;;;;;15.96;47.19;100081.78;5007740;28;19936;-41
2021/12/27 07:06:51;;;;;;;;;;;;;;;15.93;48.04;100072.28;5009498;28;20015;-40
2021/12/27 07:09:17;;;;;;;;;;;;;;;15.94;47.76;100081.13;5007575;28;19932;-41
2021/12/27 07:11:44;;;;;;;;;;;;;;;15.93;47.67;100074.94;5011941;28;20022;-41
2021/12/27 07:14:11;;;;;;;;;;;;;;;15.92;47.47;100069.75;5008899;28;19925;-41
2021/12/27 07:16:37;;;;;;;;;;;;;;;15.92;47.36;100085.78;5012171;28;19921;-41
2021/12/27 07:19:04;;;;;;;;;;;;;;;15.91;48.39;100081.44;5009010;28;19932;-41
2021/12/27 07:21:30;;;;;;;;;;;;;;;15.90;48.14;100074.44;5009490;28;20321;-41
2021/12/27 07:23:56;;;;;;;;;;;;;;;15.88;48.48;100071.91;5008313;28;20434;-41
2021/12/27 07:26:23;;;;;;;;;;;;;;;15.89;47.45;100070.09;5008662;28;19932;-41
2021/12/27 07:28:49;;;;;;;;;;;;;;;15.88;47.60;100081.75;5008832;28;20023;-41
2021/12/27 07:31:15;;;;;;;;;;;;;;;15.87;48.33;100074.72;5010614;28;20221;-41
2021/12/27 07:33:42;;;;;;;;;;;;;;;15.86;47.48;100078.41;5010583;28;20209;-40
2021/12/27 07:36:10;;;;;;;;;;;;;;;15.85;48.62;100072.22;5006970;28;19932;-40
2021/12/27 07:38:37;;;;;;;;;;;;;;;15.85;47.59;100066.88;5013209;28;19921;-40
2021/12/27 07:41:04;;;;;;;;;;;;;;;15.84;48.12;100067.03;5008745;28;19929;-40
2021/12/27 07:43:31;;;;;;;;;;;;;;;15.83;47.43;100068.88;5009312;28;19976;-40
2021/12/27 07:45:57;;;;;;;;;;;;;;;15.83;47.93;100062.69;5006148;28;19922;-40
2021/12/27 07:48:24;;;;;;;;;;;;;;;15.83;47.45;100068.88;5009253;28;20469;-41
2021/12/27 07:50:50;;;;;;;;;;;;;;;15.82;47.66;100069.03;5009684;28;19926;-40
2021/12/27 07:53:16;;;;;;;;;;;;;;;15.81;48.01;100064.69;5008564;28;19921;-40
2021/12/27 07:55:43;;;;;;;;;;;;;;;15.80;48.55;100061.19;5009756;28;21323;-40
2021/12/27 07:58:09;;;;;;;;;;;;;;;15.79;48.75;100076.34;5009435;28;19940;-40
2021/12/27 08:00:35;;;;;;;;;;;;;;;15.79;47.71;100063.00;5008666;28;19929;-40
2021/12/27 08:03:02;;;;;;;;;;;;;;;15.79;48.58;100062.16;5008240;28;19933;-40
2021/12/27 08:05:29;;;;;;;;;;;;;;;15.78;47.58;100060.50;5009091;28;19928;-40
2021/12/27 08:07:55;;;;;;;;;;;;;;;15.77;48.67;100058.81;5008792;28;19928;-41
2021/12/27 08:10:22;;;;;;;;;;;;;;;15.77;47.81;100059.66;5009704;28;19939;-41
2021/12/27 08:12:48;;;;;;;;;;;;;;;15.76;48.19;100058.00;5007430;28;19922;-41
2021/12/27 08:15:15;;;;;;;;;;;;;;;15.77;48.63;100058.81;5010274;28;19921;-40
2021/12/27 08:17:41;;;;;;;;;;;;;;;15.74;48.73;100054.63;5009836;28;19925;-40
2021/12/27 08:20:08;;;;;;;;;;;;;;;15.74;48.62;100057.28;5007053;28;19921;-40
2021/12/27 08:22:35;;;;;;;;;;;;;;;15.74;47.79;100056.47;5008149;28;19932;-40
2021/12/27 08:25:01;;;;;;;;;;;;;;;15.72;48.00;100056.63;5008110;28;20103;-40
2021/12/27 08:27:28;;;;;;;;;;;;;;;15.73;47.85;100057.47;5008412;28;20341;-41
2021/12/27 08:29:54;;;;;;;;;;;;;;;15.72;47.98;100053.13;5005992;28;19971;-40
2021/12/27 08:32:21;;;;;;;;;;;;;;;15.71;47.97;100054.09;5008461;28;19931;-41
2021/12/27 08:34:47;;;;;;;;;;;;;;;15.71;48.95;100059.44;5009560;28;19929;-40
2021/12/27 08:37:14;;;;;;;;;;;;;;;15.70;48.35;100058.59;5006695;28;19929;-41
2021/12/27 08:39:40;;;;;;;;;;;;;;;15.69;48.68;100051.59;5010052;28;19921;-41
2021/12/27 08:42:07;;;;;;;;;;;;;;;15.68;48.06;100057.94;5009135;28;19995;-41
2021/12/27 08:44:34;;;;;;;;;;;;;;;15.67;48.18;100058.91;5007019;28;19921;-40
2021/12/27 08:47:01;;;;;;;;;;;;;;;15.67;48.06;100058.91;5010104;28;20004;-41
2021/12/27 08:49:27;;;;;;;;;;;;;;;15.66;48.03;100046.56;5010593;28;19925;-41
2021/12/27 08:51:54;;;;;;;;;;;;;;;15.67;48.86;100056.25;5003109;28;19928;-41
2021/12/27 08:54:20;;;;;;;;;;;;;;;15.64;48.94;100040.53;5007545;28;19925;-41
2021/12/27 08:56:46;;;;;;;;;;;;;;;15.65;48.82;100044.91;5006955;28;20337;-40
2021/12/27 08:59:13;;;;;;;;;;;;;;;15.64;48.24;100043.19;5009187;28;19921;-41
2021/12/27 09:01:39;;;;;;;;;;;;;;;15.65;48.28;100044.06;5008439;28;19921;-41
2021/12/27 09:04:07;;;;;;;;;;;;;;;15.64;48.69;100047.66;5008008;28;19973;-41
2021/12/27 09:06:34;;;;;;;;;;;;;;;15.63;47.92;100040.66;5008029;28;20012;-41
2021/12/27 09:09:02;;;;;;;;;;;;;;;15.64;48.11;100045.00;5005031;28;20009;-41
2021/12/27 09:11:29;;;;;;;;;;;;;;;15.63;48.04;100056.69;5011891;28;19921;-41
2021/12/27 09:13:55;;;;;;;;;;;;;;;15.63;48.48;100049.50;5007546;28;19928;-41
2021/12/27 09:16:40;;;;;;;;;;;;;;;15.62;47.97;100049.69;5007044;28;19929;-41
2021/12/27 09:19:07;;;;;;;;;;;;;;;15.60;47.88;100047.19;5005011;28;19925;-41
2021/12/27 09:21:33;;;;;;;;;;;;;;;15.61;48.53;100048.84;5002867;28;20373;-41
2021/12/27 09:23:59;;;;;;;;;;;;;;;15.60;48.92;100044.50;5006753;28;19932;-41
2021/12/27 09:26:26;;;;;;;;;;;;;;;15.60;47.99;100032.94;5006086;28;19932;-40
2021/12/27 09:28:52;;;;;;;;;;;;;;;15.60;48.48;100039.16;5009126;28;19926;-40
2021/12/27 09:31:19;;;;;;;;;;;;;;;15.60;47.85;100032.94;5007327;28;20341;-40
2021/12/27 09:33:45;;;;;;;;;;;;;;;15.60;48.98;100024.94;5007176;28;19957;-40
2021/12/27 09:36:13;;;;;;;;;;;;;;;15.61;48.85;100029.31;5004491;28;19929;-40
2021/12/27 09:38:40;;;;;;;;;;;;;;;15.67;48.13;100018.00;5009166;28;19932;-41
2021/12/27 09:41:06;;;;;;;;;;;;;;;15.71;48.12;100017.53;5000413;28;19936;-41
2021/12/27 09:43:33;;;;;;;;;;;;;;;15.78;48.00;100017.75;5003811;28;20372;-41
2021/12/27 09:46:00;;;;;;;;;;;;;;;15.87;48.31;100010.59;5005237;28;19922;-41
2021/12/27 09:48:26;;;;;;;;;;;;;;;15.97;48.39;100011.31;5006338;28;20000;-41
2021/12/27 09:50:55;;;;;;;;;;;;;;;16.07;48.92;100030.72;5006709;28;19921;-42
2021/12/27 09:53:22;;;;;;;;;;;;;;;16.16;47.92;100043.16;5005917;28;19921;-40
2021/12/27 09:55:56;;;;;;;;;;;;;;;16.25;48.54;100042.19;5009376;28;20000;-41
2021/12/27 09:58:23;;;;;;;;;;;;;;;16.35;48.58;100049.22;5006196;28;19925;-41
2021/12/27 10:00:50;;;;;;;;;;;;;;;16.44;48.29;100056.25;5006681;28;20023;-41
2021/12/27 10:03:16;;;;;;;;;;;;;;;16.50;47.29;100051.13;5007557;28;20522;-41
2021/12/27 10:05:42;;;;;;;;;;;;;;;16.58;47.64;100030.75;5005580;28;19922;-41
2021/12/27 10:08:09;;;;;;;;;;;;;;;16.63;48.23;100018.53;5008094;28;19922;-41
2021/12/27 10:10:36;;;;;;;;;;;;;;;16.71;47.38;100018.53;5003282;28;20631;-41
2021/12/27 10:13:06;;;;;;;;;;;;;;;16.77;46.99;100017.94;5006073;28;19929;-40
2021/12/27 10:15:35;;;;;;;;;;;;;;;16.83;47.62;100013.75;5002962;28;20009;-41
2021/12/27 10:18:11;;;;;;;;;;;;;;;16.88;47.45;100005.22;5007866;28;19971;-41
2021/12/27 10:20:39;;;;;;;;;;;;;;;16.93;46.72;100006.41;5001788;28;19921;-41
2021/12/27 10:23:05;;;;;;;;;;;;;;;16.98;46.88;99997.88;5004219;28;19935;-41
2021/12/27 10:25:32;;;;;;;;;;;;;;;17.02;46.99;99983.16;5004505;28;19921;-41
2021/12/27 10:28:00;;;;;;;;;;;;;;;17.07;46.56;99979.97;5003072;28;19928;-41
2021/12/27 10:30:28;;;;;;;;;;;;;;;17.10;47.25;99969.75;5005984;28;19922;-41
2021/12/27 10:33:13;;;;;;;;;;;;;;;17.12;46.41;99970.41;5005893;28;19947;-41
2021/12/27 10:35:43;;;;;;;;;;;;;;;17.17;46.65;99968.06;5002286;28;19922;-41
2021/12/27 10:38:12;;;;;;;;;;;;;;;17.21;46.97;99966.72;5006620;28;20004;-41
2021/12/27 10:40:46;;;;;;;;;;;;;;;17.24;46.89;99961.00;5005239;28;20332;-43
2021/12/27 10:43:13;;;;;;;;;;;;;;;17.27;46.46;99955.31;5004055;28;20337;-42
2021/12/27 10:45:39;;;;;;;;;;;;;;;17.33;46.39;99953.00;5007005;28;19925;-42
2021/12/27 10:48:06;;;;;;;;;;;;;;;17.34;46.74;99968.88;5000267;28;20210;-42
2021/12/27 10:50:33;;;;;;;;;;;;;;;17.39;46.50;99971.03;5006790;28;19943;-42
2021/12/27 10:53:00;;;;;;;;;;;;;;;17.41;46.57;99982.44;5005762;28;19961;-42
2021/12/27 10:55:30;;;;;;;;;;;;;;;17.43;46.71;99972.38;5005572;28;20284;-42
2021/12/27 10:58:08;;;;;;;;;;;;;;;17.46;46.88;99972.03;5005414;28;19926;-42
2021/12/27 11:00:35;;;;;;;;;;;;;;;17.48;46.38;99975.38;5002535;28;19929;-42
2021/12/27 11:03:02;;;;;;;;;;;;;;;17.50;46.85;99970.69;5006190;28;19932;-42
2021/12/27 11:05:31;;;;;;;;;;;;;;;17.53;46.80;99975.72;5006462;28;20281;-42
2021/12/27 11:08:00;;;;;;;;;;;;;;;17.55;46.67;99968.31;5007378;28;20317;-42
2021/12/27 11:10:27;;;;;;;;;;;;;;;17.57;46.33;99950.25;5007605;28;19925;-42
2021/12/27 11:12:54;;;;;;;;;;;;;;;17.61;46.53;99958.75;5005303;28;19922;-41
2021/12/27 11:15:20;;;;;;;;;;;;;;;17.63;46.15;99954.06;5004528;28;20118;-41
2021/12/27 11:17:47;;;;;;;;;;;;;;;17.64;46.37;99940.47;5011323;28;20272;-41
2021/12/27 11:20:13;;;;;;;;;;;;;;;17.65;46.24;99958.25;5004024;28;19928;-41
2021/12/27 11:22:41;;;;;;;;;;;;;;;17.67;46.28;99952.72;5001674;28;19929;-41
2021/12/27 11:25:19;;;;;;;;;;;;;;;17.69;46.30;99945.34;5005953;28;20386;-41
2021/12/27 11:27:45;;;;;;;;;;;;;;;17.70;46.03;99945.16;5005913;28;19929;-40
2021/12/27 11:30:12;;;;;;;;;;;;;;;17.72;46.27;99947.66;5002652;28;19922;-39
2021/12/27 11:33:00;;;;;;;;;;;;;;;17.74;46.20;99940.28;5003607;28;19968;-39
2021/12/27 11:35:35;;;;;;;;;;;;;;;17.75;45.99;99933.94;5005289;28;19948;-39
2021/12/27 11:38:02;;;;;;;;;;;;;;;17.78;46.28;99932.78;5002532;28;20007;-40
2021/12/27 11:40:42;;;;;;;;;;;;;;;17.79;45.91;99931.75;5003105;28;20344;-40
2021/12/27 11:43:08;;;;;;;;;;;;;;;17.81;45.82;99927.03;5006944;28;19956;-40
2021/12/27 11:45:53;;;;;;;;;;;;;;;17.83;45.95;99930.41;5000606;28;20056;-39
2021/12/27 11:48:27;;;;;;;;;;;;;;;17.83;46.20;99920.50;5005552;28;19922;-39
2021/12/27 11:51:05;;;;;;;;;;;;;;;17.86;45.85;99916.66;5002911;28;19995;-39
2021/12/27 11:53:33;;;;;;;;;;;;;;;17.87;45.86;99913.78;5005068;28;20344;-39
2021/12/27 11:56:01;;;;;;;;;;;;;;;17.89;46.01;99902.88;5008877;28;21166;-39
2021/12/27 11:58:32;;;;;;;;;;;;;;;17.91;46.03;99900.88;5006682;28;19926;-39
2021/12/27 12:00:59;;;;;;;;;;;;;;;17.92;45.89;99899.84;5008803;28;19971;-40
2021/12/27 12:03:42;;;;;;;;;;;;;;;17.93;45.70;99899.69;5007251;28;19922;-40
2021/12/27 12:06:28;;;;;;;;;;;;;;;17.96;45.96;99893.13;5011452;28;20016;-40
2021/12/27 12:08:56;;;;;;;;;;;;;;;17.97;45.84;99895.66;5008630;28;20017;-40
2021/12/27 12:11:31;;;;;;;;;;;;;;;17.99;45.81;99890.09;5004392;28;19932;-40
2021/12/27 12:13:59;;;;;;;;;;;;;;;18.01;45.84;99882.72;5004606;28;19936;-40
2021/12/27 12:16:26;;;;;;;;;;;;;;;18.03;46.13;99871.81;5005922;28;20020;-40
2021/12/27 12:18:53;;;;;;;;;;;;;;;18.03;46.14;99880.69;4998892;28;19930;-40
2021/12/27 12:21:28;;;;;;;;;;;;;;;18.06;46.24;99868.78;4994653;28;19925;-40
2021/12/27 12:23:56;;;;;;;;;;;;;;;18.07;45.92;99865.91;5005938;28;20313;-40
2021/12/27 12:26:22;;;;;;;;;;;;;;;18.07;46.28;99873.97;5006359;28;19995;-40
2021/12/27 12:28:57;;;;;;;;;;;;;;;18.08;46.21;99859.53;5008398;28;20256;-40
2021/12/27 12:31:27;;;;;;;;;;;;;;;18.10;46.02;99870.94;5003451;28;19934;-40
2021/12/27 12:33:54;;;;;;;;;;;;;;;18.11;46.16;99861.88;5003763;28;20390;-39
2021/12/27 12:36:24;;;;;;;;;;;;;;;18.12;45.96;99860.84;5006594;28;20171;-41
2021/12/27 12:38:55;;;;;;;;;;;;;;;18.14;45.82;99863.38;5004718;28;19953;-39
2021/12/27 12:41:21;;;;;;;;;;;;;;;18.15;45.91;99855.13;5009923;28;19925;-39
2021/12/27 12:43:54;;;;;;;;;;;;;;;18.16;45.56;99864.84;5006488;28;19935;-39
2021/12/27 12:46:21;;;;;;;;;;;;;;;18.17;46.10;99853.13;5005829;28;20056;-39
2021/12/27 12:49:06;;;;;;;;;;;;;;;18.18;46.04;99856.63;5004310;28;19921;-39